Terminal Aerodrome Forecast
Issued by NWS Cleveland, OH

Home | Current Version | Previous Version | Graphics & Text | Print | Product List | Glossary On
Versions: 1 2 3 4 5 6 7 8 9 10 11 12 13 14 15 16 17
000
FTUS41 KCLE 241419 AAA
TAFYNG
TAF AMD
KYNG 241419Z 2414/2512 04008KT P6SM SCT007 BKN035
      TEMPO 2414/2416 BKN018
     FM241800 02008KT P6SM SCT040
     FM242300 05004KT P6SM SKC=

USA.gov is the U.S. government's official web portal to all federal, state and local government web resources and services.